• Join FlightAware (Why Join?)
  • Login
  • US Flag 
08:32PM EDT


 

Airport Tracker/Info


-or-


 

Live Flight TrackerFlight Track Log ✈ N771PB ✈ 03-May-2012 ✈ 0E8 - KABQ

Flight Track Log - Related Links

Times and Time Zones

All times are in EDT time to prevent confusion due to time zone crossing. See the N771PB flight status page for this flight to view local times or setup timezone preferences in your user account.

Time Position Orientation Groundspeed Altitude Reporting Facility
EDT Latitude Longitude Course Direction KTS MPH feet Rate Location/Type
01:01AM 35.6431 -108.0614 333° Northwest 229 264 11,400  Level Albuquerque Center
01:02AM 35.7329 -108.1186 89° East  Level FlightAware Approximate
01:09AM 35.7381 -107.7519 128° Southeast  Level FlightAware Approximate
01:10AM 35.7033 -107.6979 196° South  Level FlightAware Approximate
01:11AM 35.6496 -107.7165 125° Southeast  Level FlightAware Approximate
01:12AM 35.6171 -107.6605 125° Southeast  Level FlightAware Approximate
01:13AM 35.5847 -107.6044 125° Southeast  Level FlightAware Approximate
01:14AM 35.5522 -107.5485 126° Southeast  Level FlightAware Approximate
01:15AM 35.5198 -107.4926 126° Southeast  Level FlightAware Approximate
01:16AM 35.4873 -107.4367 126° Southeast  Level FlightAware Approximate
01:17AM 35.4547 -107.3809 126° Southeast  Level FlightAware Approximate
01:18AM 35.4221 -107.3251 126° Southeast  Level FlightAware Approximate
01:19AM 35.3896 -107.2694 126° Southeast  Level FlightAware Approximate
01:20AM 35.3569 -107.2137 126° Southeast  Level FlightAware Approximate
01:21AM 35.3243 -107.1581 126° Southeast  Level FlightAware Approximate
01:22AM 35.2916 -107.1025 126° Southeast  Level FlightAware Approximate
01:23AM 35.2590 -107.0469 126° Southeast  Level FlightAware Approximate
01:24AM 35.2262 -106.9914 126° Southeast  Level FlightAware Approximate
01:25AM 35.1935 -106.9360 126° Southeast  Level FlightAware Approximate
01:26AM 35.1607 -106.8805 126° Southeast  Level FlightAware Approximate
01:27AM 35.1279 -106.8252 126° Southeast  Level FlightAware Approximate
01:28AM 35.0951 -106.7699 117° Southeast  Level FlightAware Approximate
01:29AM 35.0698 -106.7094 110° East  Level FlightAware Approximate
01:30AM 35.0509 -106.6452 115° Southeast  Level Estimated
01:31AM 35.0333 -106.6000 312° West  Level FlightAware Approximate
01:32AM 35.0710 -106.6505 132° Southeast  Level Estimated
01:33AM 35.0333 -106.6000 312° West  Level FlightAware Approximate
01:34AM 35.0710 -106.6505 132° Southeast  Level Estimated
01:35AM 35.0333 -106.6000 312° West  Level FlightAware Approximate
01:36AM 35.0710 -106.6505 132° Southeast  Level Estimated
01:37AM 35.0333 -106.6000 312° West  Level FlightAware Approximate
01:38AM 35.0710 -106.6505 132° Southeast  Level Estimated
01:39AM 35.0333 -106.6000 312° West  Level FlightAware Approximate
01:40AM 35.0710 -106.6505 132° Southeast  Level Estimated
01:41AM 35.0333 -106.6000 312° West  Level FlightAware Approximate
01:42AM 35.0710 -106.6505 132° Southeast  Level Estimated
01:43AM 35.0333 -106.6000 312° West  Level FlightAware Approximate
01:44AM 35.0710 -106.6505 132° Southeast  Level Estimated
01:45AM 35.0333 -106.6000 312° West  Level FlightAware Approximate
01:46AM 35.0710 -106.6505 312° West  Level Estimated